EZS39C EDDN-LFSB
Flight info
| Callsign | EZS39C |
|---|---|
| Flight time | 0h 39m |
| Altitude | 20000 |
| Route | BOLSI1G/28 BOLSI Y166 DKB N869 TEDGO T716 DENEL/N0395F190 T715 LIPKA/N0362F130 T715 RIGVI |
| Aircraft | A320/M-SDE3FGHIRWY/LB1 |
Departure
| Time | 2026-05-04 16:57 |
|---|---|
| Airport | Nuremberg Airport (EDDN) |
Arrival
| Time | 2026-05-04 17:37 |
|---|---|
| Airport | EuroAirport Basel–Mulhouse–Freiburg (LFSB) |
| Time | Latitude | Longitude | Altitude | Speed | Heading |
|---|---|---|---|---|---|
| 2026-05-04 16:26 | 49.49524 | 11.07724 | 1026 ft | 0 kts | 188° |
| 2026-05-04 16:46 | 49.49546 | 11.07727 | 1025 ft | 2 kts | 178° |
| 2026-05-04 16:46 | 49.49577 | 11.07716 | 1029 ft | 2 kts | 143° |
| 2026-05-04 16:47 | 49.49595 | 11.07676 | 1030 ft | 2 kts | 102° |
| 2026-05-04 16:47 | 49.49597 | 11.07664 | 1030 ft | 0 kts | 99° |
| 2026-05-04 16:49 | 49.49594 | 11.07690 | 1030 ft | 8 kts | 99° |
| 2026-05-04 16:50 | 49.49563 | 11.08001 | 1032 ft | 20 kts | 98° |
| 2026-05-04 16:50 | 49.49550 | 11.08338 | 1036 ft | 14 kts | 45° |
| 2026-05-04 16:51 | 49.49599 | 11.08607 | 1041 ft | 17 kts | 99° |
| 2026-05-04 16:51 | 49.49579 | 11.08800 | 1044 ft | 20 kts | 99° |
| 2026-05-04 16:51 | 49.49538 | 11.09218 | 1050 ft | 19 kts | 98° |
| 2026-05-04 16:52 | 49.49572 | 11.09445 | 1057 ft | 19 kts | 54° |
| 2026-05-04 16:52 | 49.49649 | 11.09568 | 1061 ft | 15 kts | 15° |
| 2026-05-04 16:53 | 49.49760 | 11.09072 | 1051 ft | 68 kts | 275° |
| 2026-05-04 16:53 | 49.49657 | 11.08472 | 1036 ft | 15 kts | 234° |
| 2026-05-04 16:54 | 49.49608 | 11.08432 | 1037 ft | 7 kts | 142° |
| 2026-05-04 16:55 | 49.49570 | 11.08905 | 1045 ft | 15 kts | 97° |
| 2026-05-04 16:55 | 49.49538 | 11.09223 | 1050 ft | 14 kts | 98° |
| 2026-05-04 16:56 | 49.49575 | 11.09451 | 1057 ft | 18 kts | 52° |
| 2026-05-04 16:56 | 49.49712 | 11.09402 | 1056 ft | 39 kts | 278° |
| 2026-05-04 16:57 | 49.49795 | 11.08569 | 1036 ft | 115 kts | 278° |
| 2026-05-04 16:57 | 49.50131 | 11.05342 | 1715 ft | 166 kts | 282° |
| 2026-05-04 16:58 | 49.50716 | 10.99351 | 3260 ft | 223 kts | 280° |
| 2026-05-04 16:58 | 49.50957 | 10.96860 | 3777 ft | 247 kts | 280° |
| 2026-05-04 16:59 | 49.50991 | 10.91259 | 5249 ft | 275 kts | 250° |
| 2026-05-04 17:00 | 49.46380 | 10.82012 | 9417 ft | 273 kts | 228° |
| 2026-05-04 17:00 | 49.42425 | 10.74808 | 11086 ft | 321 kts | 229° |
| 2026-05-04 17:01 | 49.39491 | 10.69445 | 12618 ft | 332 kts | 229° |
| 2026-05-04 17:01 | 49.36489 | 10.63953 | 14133 ft | 340 kts | 230° |
| 2026-05-04 17:02 | 49.33407 | 10.58346 | 15563 ft | 347 kts | 230° |
| 2026-05-04 17:02 | 49.30262 | 10.52643 | 16982 ft | 353 kts | 230° |
| 2026-05-04 17:03 | 49.28687 | 10.49795 | 17667 ft | 357 kts | 230° |
| 2026-05-04 17:03 | 49.27076 | 10.46880 | 18327 ft | 360 kts | 230° |
| 2026-05-04 17:03 | 49.23786 | 10.40937 | 19490 ft | 366 kts | 230° |
| 2026-05-04 17:04 | 49.20485 | 10.34988 | 20617 ft | 373 kts | 229° |
| 2026-05-04 17:04 | 49.17122 | 10.28870 | 21707 ft | 379 kts | 230° |
| 2026-05-04 17:05 | 49.13792 | 10.22557 | 21983 ft | 385 kts | 231° |
| 2026-05-04 17:05 | 49.10442 | 10.16154 | 21982 ft | 386 kts | 231° |
| 2026-05-04 17:06 | 49.07079 | 10.09774 | 21972 ft | 385 kts | 230° |
| 2026-05-04 17:06 | 49.05394 | 10.06594 | 21977 ft | 385 kts | 230° |
| 2026-05-04 17:07 | 49.02016 | 10.00253 | 21977 ft | 385 kts | 230° |
| 2026-05-04 17:07 | 49.00896 | 9.98152 | 21977 ft | 385 kts | 230° |
| 2026-05-04 17:07 | 48.98637 | 9.93928 | 21972 ft | 385 kts | 230° |
| 2026-05-04 17:07 | 48.96945 | 9.90769 | 21972 ft | 384 kts | 230° |
| 2026-05-04 17:08 | 48.95257 | 9.87614 | 21970 ft | 384 kts | 230° |
| 2026-05-04 17:08 | 48.91884 | 9.81310 | 21967 ft | 384 kts | 230° |
| 2026-05-04 17:08 | 48.90194 | 9.78158 | 21965 ft | 384 kts | 230° |
| 2026-05-04 17:09 | 48.88500 | 9.75013 | 21957 ft | 384 kts | 230° |
| 2026-05-04 17:09 | 48.86806 | 9.71875 | 21957 ft | 384 kts | 230° |
| 2026-05-04 17:09 | 48.85109 | 9.68732 | 21955 ft | 385 kts | 230° |
| 2026-05-04 17:10 | 48.81718 | 9.62453 | 21972 ft | 385 kts | 230° |
| 2026-05-04 17:10 | 48.76641 | 9.53072 | 21964 ft | 385 kts | 230° |
| 2026-05-04 17:11 | 48.74941 | 9.49935 | 21963 ft | 384 kts | 230° |
| 2026-05-04 17:11 | 48.73245 | 9.46813 | 21962 ft | 385 kts | 230° |
| 2026-05-04 17:11 | 48.69833 | 9.40543 | 21956 ft | 385 kts | 230° |
| 2026-05-04 17:12 | 48.68154 | 9.37462 | 21959 ft | 385 kts | 230° |
| 2026-05-04 17:12 | 48.64745 | 9.31228 | 21960 ft | 385 kts | 230° |
| 2026-05-04 17:13 | 48.61169 | 9.20517 | 21754 ft | 380 kts | 257° |
| 2026-05-04 17:14 | 48.59780 | 9.08881 | 20998 ft | 373 kts | 257° |
| 2026-05-04 17:14 | 48.59309 | 9.05034 | 20746 ft | 372 kts | 257° |
| 2026-05-04 17:14 | 48.58356 | 8.97381 | 20249 ft | 370 kts | 257° |
| 2026-05-04 17:15 | 48.57881 | 8.93569 | 20002 ft | 369 kts | 257° |
| 2026-05-04 17:15 | 48.56944 | 8.85978 | 19521 ft | 367 kts | 257° |
| 2026-05-04 17:16 | 48.56006 | 8.78413 | 19042 ft | 365 kts | 257° |
| 2026-05-04 17:16 | 48.54593 | 8.67242 | 18364 ft | 363 kts | 257° |
| 2026-05-04 17:17 | 48.54120 | 8.63502 | 18106 ft | 363 kts | 257° |
| 2026-05-04 17:17 | 48.52701 | 8.52329 | 17307 ft | 360 kts | 257° |
| 2026-05-04 17:18 | 48.52228 | 8.48631 | 17049 ft | 358 kts | 257° |
| 2026-05-04 17:18 | 48.51287 | 8.41334 | 16537 ft | 356 kts | 257° |
| 2026-05-04 17:19 | 48.50338 | 8.34032 | 16032 ft | 353 kts | 257° |
| 2026-05-04 17:19 | 48.49389 | 8.26799 | 15536 ft | 350 kts | 255° |
| 2026-05-04 17:20 | 48.47140 | 8.20463 | 15049 ft | 343 kts | 233° |
| 2026-05-04 17:20 | 48.44362 | 8.14642 | 14563 ft | 341 kts | 233° |
| 2026-05-04 17:20 | 48.42978 | 8.11746 | 14325 ft | 340 kts | 233° |
| 2026-05-04 17:21 | 48.40221 | 8.05998 | 13846 ft | 337 kts | 233° |
| 2026-05-04 17:21 | 48.37939 | 8.01251 | 13419 ft | 335 kts | 233° |
| 2026-05-04 17:22 | 48.36115 | 7.97455 | 13060 ft | 334 kts | 233° |
| 2026-05-04 17:22 | 48.35214 | 7.95580 | 12887 ft | 333 kts | 233° |
| 2026-05-04 17:23 | 48.31152 | 7.87164 | 12108 ft | 330 kts | 232° |
| 2026-05-04 17:23 | 48.29807 | 7.84383 | 11854 ft | 328 kts | 232° |
| 2026-05-04 17:23 | 48.26448 | 7.79971 | 11352 ft | 322 kts | 209° |
| 2026-05-04 17:24 | 48.24518 | 7.78277 | 11110 ft | 321 kts | 209° |
| 2026-05-04 17:24 | 48.18748 | 7.73291 | 10365 ft | 316 kts | 208° |
| 2026-05-04 17:25 | 48.16872 | 7.71675 | 10132 ft | 306 kts | 208° |
| 2026-05-04 17:25 | 48.13340 | 7.68620 | 9976 ft | 279 kts | 208° |
| 2026-05-04 17:26 | 48.10026 | 7.65762 | 9990 ft | 273 kts | 208° |
| 2026-05-04 17:26 | 48.05112 | 7.61531 | 9984 ft | 272 kts | 209° |
| 2026-05-04 17:27 | 48.01822 | 7.58701 | 9299 ft | 271 kts | 209° |
| 2026-05-04 17:27 | 47.98570 | 7.55905 | 8571 ft | 269 kts | 208° |
| 2026-05-04 17:28 | 47.95343 | 7.53132 | 7860 ft | 266 kts | 208° |
| 2026-05-04 17:29 | 47.90564 | 7.49041 | 6762 ft | 263 kts | 209° |
| 2026-05-04 17:29 | 47.85823 | 7.44996 | 5557 ft | 260 kts | 209° |
| 2026-05-04 17:30 | 47.81151 | 7.41025 | 4356 ft | 257 kts | 208° |
| 2026-05-04 17:31 | 47.77705 | 7.40163 | 4001 ft | 259 kts | 171° |
| 2026-05-04 17:31 | 47.72697 | 7.43352 | 3279 ft | 258 kts | 156° |
| 2026-05-04 17:32 | 47.69607 | 7.45515 | 2624 ft | 231 kts | 155° |
| 2026-05-04 17:33 | 47.65817 | 7.48161 | 1817 ft | 174 kts | 154° |
| 2026-05-04 17:33 | 47.64738 | 7.48915 | 1558 ft | 168 kts | 154° |
| 2026-05-04 17:34 | 47.62534 | 7.52754 | 1513 ft | 165 kts | 116° |
| 2026-05-04 17:34 | 47.62407 | 7.54411 | 1514 ft | 164 kts | 83° |
| 2026-05-04 17:35 | 47.62747 | 7.58957 | 1314 ft | 144 kts | 118° |
| 2026-05-04 17:35 | 47.61055 | 7.59505 | 1348 ft | 139 kts | 212° |
| 2026-05-04 17:35 | 47.60407 | 7.58481 | 1358 ft | 137 kts | 237° |
| 2026-05-04 17:36 | 47.59904 | 7.57278 | 1335 ft | 137 kts | 237° |
| 2026-05-04 17:36 | 47.59466 | 7.56024 | 1218 ft | 138 kts | 252° |
| 2026-05-04 17:36 | 47.59252 | 7.54646 | 1026 ft | 137 kts | 256° |
| 2026-05-04 17:36 | 47.59043 | 7.53278 | 893 ft | 134 kts | 257° |
| 2026-05-04 17:37 | 47.58886 | 7.52289 | 893 ft | 56 kts | 257° |
| 2026-05-04 17:37 | 47.58831 | 7.51933 | 894 ft | 32 kts | 257° |
| 2026-05-04 17:37 | 47.58833 | 7.51717 | 891 ft | 21 kts | 310° |
| 2026-05-04 17:37 | 47.58916 | 7.51669 | 890 ft | 0 kts | 354° |
| 2026-05-04 17:40 | 47.58929 | 7.51670 | 890 ft | 7 kts | 4° |
| 2026-05-04 17:40 | 47.58992 | 7.51731 | 890 ft | 14 kts | 47° |
| 2026-05-04 17:40 | 47.59071 | 7.51857 | 890 ft | 19 kts | 46° |
| 2026-05-04 17:41 | 47.59167 | 7.52000 | 890 ft | 20 kts | 45° |
| 2026-05-04 17:41 | 47.59263 | 7.52155 | 890 ft | 17 kts | 55° |
| 2026-05-04 17:41 | 47.59318 | 7.52320 | 890 ft | 19 kts | 68° |
| 2026-05-04 17:41 | 47.59369 | 7.52484 | 890 ft | 16 kts | 65° |
| 2026-05-04 17:42 | 47.59421 | 7.52646 | 890 ft | 18 kts | 65° |
| 2026-05-04 17:42 | 47.59475 | 7.52809 | 890 ft | 13 kts | 52° |
| 2026-05-04 17:42 | 47.59562 | 7.52818 | 890 ft | 15 kts | 333° |
| 2026-05-04 17:42 | 47.59661 | 7.52748 | 890 ft | 17 kts | 336° |
| 2026-05-04 17:43 | 47.59771 | 7.52672 | 890 ft | 18 kts | 335° |
| 2026-05-04 17:43 | 47.59893 | 7.52589 | 890 ft | 20 kts | 335° |
| 2026-05-04 17:43 | 47.59982 | 7.52526 | 890 ft | 10 kts | 335° |
| 2026-05-04 17:43 | 47.60040 | 7.52568 | 890 ft | 12 kts | 64° |
| 2026-05-04 17:44 | 47.60077 | 7.52686 | 890 ft | 14 kts | 66° |
| 2026-05-04 17:44 | 47.60113 | 7.52806 | 890 ft | 10 kts | 72° |
| 2026-05-04 17:44 | 47.60071 | 7.52880 | 890 ft | 7 kts | 132° |
| 2026-05-04 17:44 | 47.60057 | 7.52950 | 890 ft | 5 kts | 99° |
| 2026-05-04 17:45 | 47.60051 | 7.53000 | 890 ft | 4 kts | 107° |
| 2026-05-04 17:45 | 47.60032 | 7.53010 | 890 ft | 2 kts | 159° |